createdAt,value
2018-11-01T00:00:21.472Z,0
2018-11-01T00:01:31.495Z,0
2018-11-01T00:02:41.513Z,0
2018-11-01T00:03:50.993Z,0
2018-11-01T00:05:01.018Z,0
2018-11-01T00:06:10.231Z,0
2018-11-01T00:07:20.035Z,0
2018-11-01T00:08:29.522Z,0
2018-11-01T00:09:39.005Z,0
2018-11-01T00:10:49.044Z,0
2018-11-01T00:11:58.795Z,0
2018-11-01T00:13:08.816Z,0
2018-11-01T00:14:18.835Z,0
2018-11-01T00:15:28.311Z,0
2018-11-01T00:16:38.323Z,0
2018-11-01T00:17:48.337Z,0
2018-11-01T00:18:58.363Z,0
2018-11-01T00:20:08.110Z,0
2018-11-01T00:21:17.590Z,0
2018-11-01T00:22:27.607Z,0
2018-11-01T00:23:37.641Z,0
2018-11-01T00:24:47.129Z,0
2018-11-01T00:25:57.199Z,0
2018-11-01T00:27:07.218Z,0
2018-11-01T00:28:17.238Z,0
2018-11-01T00:29:26.987Z,0
2018-11-01T00:30:37.037Z,0
2018-11-01T00:31:46.791Z,0
2018-11-01T00:32:56.806Z,0
2018-11-01T00:34:06.825Z,0
2018-11-01T00:35:16.847Z,0
2018-11-01T00:36:26.593Z,0
2018-11-01T00:37:36.346Z,0
2018-11-01T00:38:46.103Z,0
2018-11-01T00:39:55.850Z,0
2018-11-01T00:41:05.338Z,0
2018-11-01T00:42:15.082Z,0
2018-11-01T00:43:25.104Z,0
2018-11-01T00:44:35.122Z,0
2018-11-01T00:45:44.335Z,0
2018-11-01T00:46:54.354Z,0
2018-11-01T00:48:04.388Z,0
2018-11-01T00:49:13.604Z,0
2018-11-01T00:50:23.383Z,0
2018-11-01T00:51:32.595Z,0
2018-11-01T00:52:42.616Z,0
2018-11-01T00:53:51.828Z,0
2018-11-01T00:55:01.578Z,0
2018-11-01T00:56:11.329Z,0
2018-11-01T00:57:21.354Z,0
2018-11-01T00:58:30.840Z,0
2018-11-01T00:59:40.858Z,0
2018-11-01T01:00:50.612Z,0
2018-11-01T01:02:00.361Z,0
2018-11-01T01:03:10.113Z,0
2018-11-01T01:04:19.871Z,0
2018-11-01T01:05:29.886Z,0
2018-11-01T01:06:39.372Z,0
2018-11-01T01:07:49.395Z,0
2018-11-01T01:08:59.139Z,0
2018-11-01T01:10:08.901Z,0
2018-11-01T01:11:18.654Z,0
2018-11-01T01:12:28.140Z,0
2018-11-01T01:13:37.887Z,0
2018-11-01T01:14:47.639Z,0
2018-11-01T01:15:57.383Z,0
2018-11-01T01:17:06.864Z,0
2018-11-01T01:18:16.660Z,0
2018-11-01T01:19:26.416Z,0
2018-11-01T01:20:36.438Z,0
2018-11-01T01:21:46.468Z,0
2018-11-01T01:22:56.485Z,0
2018-11-01T01:24:06.238Z,0
2018-11-01T01:25:16.000Z,0
2018-11-01T01:26:26.024Z,0
2018-11-01T01:27:36.087Z,0
2018-11-01T01:28:46.119Z,0
2018-11-01T01:29:55.867Z,0
2018-11-01T01:31:05.618Z,0
2018-11-01T01:32:15.097Z,0
2018-11-01T01:33:24.581Z,0
2018-11-01T01:34:35.077Z,0
2018-11-01T01:35:45.244Z,0
2018-11-01T01:36:55.260Z,0
2018-11-01T01:38:05.009Z,0
2018-11-01T01:39:14.756Z,0
2018-11-01T01:40:24.513Z,0
2018-11-01T01:41:34.531Z,0
2018-11-01T01:42:44.551Z,0
2018-11-01T01:43:54.305Z,0
2018-11-01T01:45:04.056Z,0
2018-11-01T01:46:14.076Z,0
2018-11-01T01:47:24.157Z,0
2018-11-01T01:48:34.171Z,0
2018-11-01T01:49:44.186Z,0
2018-11-01T01:50:54.483Z,0
2018-11-01T01:52:04.233Z,0
2018-11-01T01:53:14.252Z,0
2018-11-01T01:54:24.000Z,0
2018-11-01T01:55:33.748Z,0
2018-11-01T01:56:43.500Z,0
2018-11-01T01:57:53.253Z,0
2018-11-01T01:59:03.001Z,0
2018-11-01T02:00:12.757Z,0
2018-11-01T02:01:22.778Z,0
2018-11-01T02:02:32.795Z,0
2018-11-01T02:03:42.818Z,0
2018-11-01T02:04:52.834Z,0
2018-11-01T02:06:02.587Z,0
2018-11-01T02:07:12.607Z,0
2018-11-01T02:08:22.090Z,0
2018-11-01T02:09:31.836Z,0
2018-11-01T02:10:41.870Z,0
2018-11-01T02:11:52.581Z,0
2018-11-01T02:13:02.705Z,0
2018-11-01T02:14:12.182Z,0
2018-11-01T02:15:21.997Z,0
2018-11-01T02:16:32.020Z,0
2018-11-01T02:17:41.512Z,0
2018-11-01T02:18:51.258Z,0
2018-11-01T02:20:01.275Z,0
2018-11-01T02:21:11.024Z,0
2018-11-01T02:22:20.508Z,0
2018-11-01T02:23:30.532Z,0
2018-11-01T02:24:40.277Z,0
2018-11-01T02:25:50.298Z,0
2018-11-01T02:27:00.315Z,0
2018-11-01T02:28:09.797Z,0
2018-11-01T02:29:19.815Z,0
2018-11-01T02:30:29.574Z,0
2018-11-01T02:31:39.693Z,0
2018-11-01T02:32:49.196Z,0
2018-11-01T02:33:59.231Z,0
2018-11-01T02:35:08.734Z,0
2018-11-01T02:36:18.489Z,0
2018-11-01T02:37:28.514Z,0
2018-11-01T02:38:39.188Z,0
2018-11-01T02:39:48.904Z,0
2018-11-01T02:40:58.927Z,0
2018-11-01T02:42:08.686Z,0
2018-11-01T02:43:18.707Z,0
2018-11-01T02:44:28.473Z,0
2018-11-01T02:45:38.496Z,0
2018-11-01T02:46:48.252Z,0
2018-11-01T02:47:58.340Z,0
2018-11-01T02:49:07.827Z,0
2018-11-01T02:50:17.318Z,0
2018-11-01T02:51:27.397Z,0
2018-11-01T02:52:36.881Z,0
2018-11-01T02:53:46.897Z,0
2018-11-01T02:54:56.932Z,0
2018-11-01T02:56:06.951Z,0
2018-11-01T02:57:16.214Z,0
2018-11-01T02:58:26.233Z,0
2018-11-01T02:59:36.289Z,0
2018-11-01T03:00:46.391Z,0
2018-11-01T03:01:56.141Z,0
2018-11-01T03:03:05.941Z,0
2018-11-01T03:04:15.960Z,0
2018-11-01T03:05:25.464Z,0
2018-11-01T03:06:35.220Z,0
2018-11-01T03:07:45.260Z,0
2018-11-01T03:08:55.288Z,0
2018-11-01T03:10:05.320Z,0
2018-11-01T03:11:14.809Z,0
2018-11-01T03:12:24.830Z,0
2018-11-01T03:13:34.851Z,0
2018-11-01T03:14:44.881Z,0
2018-11-01T03:15:54.904Z,0
2018-11-01T03:17:05.041Z,0
2018-11-01T03:18:15.073Z,0
2018-11-01T03:19:25.095Z,0
2018-11-01T03:20:34.903Z,0
2018-11-01T03:21:45.256Z,0
2018-11-01T03:22:55.286Z,0
2018-11-01T03:24:05.048Z,0
2018-11-01T03:25:15.072Z,0
2018-11-01T03:26:25.073Z,0
2018-11-01T03:27:34.641Z,0
2018-11-01T03:28:44.655Z,0
2018-11-01T03:29:54.671Z,0
2018-11-01T03:31:04.708Z,0
2018-11-01T03:32:14.496Z,0
2018-11-01T03:33:24.253Z,0
2018-11-01T03:34:33.750Z,0
2018-11-01T03:35:43.395Z,0
2018-11-01T03:36:52.630Z,0
2018-11-01T03:38:02.744Z,0
2018-11-01T03:39:12.741Z,0
2018-11-01T03:40:22.775Z,0
2018-11-01T03:41:32.792Z,0
2018-11-01T03:42:42.303Z,0
2018-11-01T03:43:52.335Z,0
2018-11-01T03:45:02.092Z,0
2018-11-01T03:46:11.572Z,0
2018-11-01T03:47:21.337Z,0
2018-11-01T03:48:31.360Z,0
2018-11-01T03:49:40.840Z,0
2018-11-01T03:50:50.853Z,0
2018-11-01T03:52:01.280Z,0
2018-11-01T03:53:11.105Z,0
2018-11-01T03:54:21.104Z,0
2018-11-01T03:55:30.866Z,0
2018-11-01T03:56:39.820Z,0
2018-11-01T03:57:49.851Z,0
2018-11-01T03:58:59.604Z,0
2018-11-01T04:00:09.087Z,0
2018-11-01T04:01:18.856Z,0
2018-11-01T04:02:28.892Z,0
2018-11-01T04:03:39.161Z,0
2018-11-01T04:04:49.261Z,0
2018-11-01T04:05:59.292Z,0
2018-11-01T04:07:09.319Z,0
2018-11-01T04:08:19.071Z,0
2018-11-01T04:09:28.304Z,0
2018-11-01T04:10:38.327Z,0
2018-11-01T04:11:48.099Z,0
2018-11-01T04:12:57.856Z,0
2018-11-01T04:14:07.889Z,0
2018-11-01T04:15:18.572Z,0
2018-11-01T04:16:28.494Z,0
2018-11-01T04:17:37.982Z,0
2018-11-01T04:18:47.740Z,0
2018-11-01T04:19:57.490Z,0
2018-11-01T04:21:07.250Z,0
2018-11-01T04:22:17.269Z,0
2018-11-01T04:23:27.554Z,0
2018-11-01T04:24:37.633Z,0
2018-11-01T04:25:47.891Z,0
2018-11-01T04:26:57.666Z,0
2018-11-01T04:28:07.409Z,0
2018-11-01T04:29:17.437Z,0
2018-11-01T04:30:27.465Z,0
2018-11-01T04:31:37.497Z,0
2018-11-01T04:32:47.251Z,0
2018-11-01T04:33:57.874Z,0
2018-11-01T04:35:07.622Z,0
2018-11-01T04:36:17.501Z,0
2018-11-01T04:37:27.245Z,0
2018-11-01T04:38:37.001Z,0
2018-11-01T04:39:47.022Z,0
2018-11-01T04:40:57.228Z,0
2018-11-01T04:42:07.279Z,0
2018-11-01T04:43:17.485Z,0
2018-11-01T04:44:27.805Z,0
2018-11-01T04:45:37.578Z,0
2018-11-01T04:46:47.089Z,0
2018-11-01T04:47:57.178Z,0
2018-11-01T04:49:07.311Z,0
2018-11-01T04:50:17.064Z,0
2018-11-01T04:51:26.811Z,0
2018-11-01T04:52:36.561Z,0
2018-11-01T04:53:46.579Z,0
2018-11-01T04:54:56.064Z,0
2018-11-01T04:56:05.811Z,0
2018-11-01T04:57:15.293Z,0
2018-11-01T04:58:25.056Z,0
2018-11-01T04:59:34.809Z,0
2018-11-01T05:00:44.831Z,0
2018-11-01T05:01:54.585Z,0
2018-11-01T05:03:04.334Z,0
2018-11-01T05:04:14.082Z,0
2018-11-01T05:05:24.313Z,0
2018-11-01T05:06:34.444Z,0
2018-11-01T05:07:44.474Z,0
2018-11-01T05:08:54.499Z,0
2018-11-01T05:10:03.977Z,0
2018-11-01T05:11:13.736Z,0
2018-11-01T05:12:23.511Z,0
2018-11-01T05:13:32.998Z,0
2018-11-01T05:14:42.759Z,0
2018-11-01T05:15:52.778Z,0
2018-11-01T05:17:02.803Z,0
2018-11-01T05:18:12.553Z,0
2018-11-01T05:19:22.580Z,0
2018-11-01T05:20:32.891Z,0
2018-11-01T05:21:42.911Z,0
2018-11-01T05:22:52.658Z,0
2018-11-01T05:24:02.421Z,0
2018-11-01T05:25:12.456Z,0
2018-11-01T05:26:22.483Z,0
2018-11-01T05:27:32.251Z,0
2018-11-01T05:28:42.010Z,0
2018-11-01T05:29:51.834Z,0
2018-11-01T05:31:01.665Z,0
2018-11-01T05:32:11.738Z,0
2018-11-01T05:33:21.590Z,0
2018-11-01T05:34:31.205Z,0
2018-11-01T05:35:41.344Z,0
2018-11-01T05:36:50.932Z,0
2018-11-01T05:38:00.918Z,0
2018-11-01T05:39:10.505Z,0
2018-11-01T05:40:20.625Z,0
2018-11-01T05:41:30.476Z,0
2018-11-01T05:42:40.049Z,0
2018-11-01T05:43:49.912Z,0
2018-11-01T05:45:00.050Z,0
2018-11-01T05:46:10.227Z,0
2018-11-01T05:47:20.353Z,0
2018-11-01T05:48:29.928Z,0
2018-11-01T05:49:39.775Z,0
2018-11-01T05:50:49.904Z,0
2018-11-01T05:51:59.783Z,0
2018-11-01T05:53:09.643Z,0
2018-11-01T05:54:19.764Z,0
2018-11-01T05:55:29.883Z,0
2018-11-01T05:56:39.999Z,0
2018-11-01T05:57:49.573Z,0
2018-11-01T05:58:59.418Z,0
2018-11-01T06:00:09.720Z,0
2018-11-01T06:01:19.571Z,0
2018-11-01T06:02:29.420Z,0
2018-11-01T06:03:39.542Z,0
2018-11-01T06:04:49.662Z,0
2018-11-01T06:05:59.787Z,0
2018-11-01T06:07:09.640Z,0
2018-11-01T06:08:19.214Z,0
2018-11-01T06:09:29.343Z,0
2018-11-01T06:10:39.475Z,0
2018-11-01T06:11:49.327Z,0
2018-11-01T06:12:59.449Z,0
2018-11-01T06:14:09.572Z,0
2018-11-01T06:15:19.699Z,0
2018-11-01T06:16:29.547Z,0
2018-11-01T06:17:39.396Z,0
2018-11-01T06:18:49.513Z,0
2018-11-01T06:19:59.630Z,0
2018-11-01T06:21:09.522Z,0
2018-11-01T06:22:19.096Z,0
2018-11-01T06:23:28.668Z,0
2018-11-01T06:24:38.792Z,0
2018-11-01T06:25:48.916Z,0
2018-11-01T06:26:58.488Z,0
2018-11-01T06:28:07.505Z,0
2018-11-01T06:29:17.362Z,0
2018-11-01T06:30:27.890Z,0
2018-11-01T06:31:37.745Z,0
2018-11-01T06:32:47.598Z,0
2018-11-01T06:33:57.730Z,0
2018-11-01T06:35:07.578Z,0
2018-11-01T06:36:17.425Z,0
2018-11-01T06:37:26.996Z,0
2018-11-01T06:38:36.844Z,0
2018-11-01T06:40:12.376Z,0
2018-11-01T06:41:22.463Z,0
2018-11-01T06:42:32.297Z,0
2018-11-01T06:43:42.475Z,0
2018-11-01T06:44:52.561Z,0
2018-11-01T06:46:02.413Z,0
2018-11-01T06:47:12.537Z,0
2018-11-01T06:48:22.132Z,0
2018-11-01T06:49:32.271Z,0
2018-11-01T06:50:41.844Z,0
2018-11-01T06:51:51.968Z,0
2018-11-01T06:53:01.810Z,0
2018-11-01T06:54:11.385Z,0
2018-11-01T06:55:20.953Z,5
2018-11-01T06:56:31.078Z,5
2018-11-01T06:57:40.374Z,5
2018-11-01T06:58:50.614Z,5
2018-11-01T07:00:00.749Z,5
2018-11-01T07:01:10.619Z,10
2018-11-01T07:02:20.740Z,10
2018-11-01T07:03:30.592Z,10
2018-11-01T07:04:40.163Z,10
2018-11-01T07:05:50.955Z,10
2018-11-01T07:07:00.915Z,10
2018-11-01T07:08:11.040Z,10
2018-11-01T07:09:20.884Z,10
2018-11-01T07:10:31.006Z,10
2018-11-01T07:11:41.912Z,10
2018-11-01T07:12:51.485Z,10
2018-11-01T07:14:01.618Z,10
2018-11-01T07:15:11.470Z,10
2018-11-01T07:16:21.599Z,10
2018-11-01T07:17:32.905Z,5
2018-11-01T07:18:42.525Z,5
2018-11-01T07:19:52.094Z,5
2018-11-01T07:21:02.218Z,5
2018-11-01T07:22:11.795Z,10
2018-11-01T07:23:21.940Z,10
2018-11-01T07:24:31.515Z,10
2018-11-01T07:25:42.220Z,10
2018-11-01T07:26:52.361Z,10
2018-11-01T07:28:02.209Z,15
2018-11-01T07:29:12.064Z,15
2018-11-01T07:30:21.916Z,15
2018-11-01T07:31:32.040Z,15
2018-11-01T07:32:42.705Z,20
2018-11-01T07:33:52.759Z,20
2018-11-01T07:35:02.613Z,20
2018-11-01T07:36:12.239Z,25
2018-11-01T07:37:22.355Z,25
2018-11-01T07:38:32.206Z,25
2018-11-01T07:39:42.388Z,25
2018-11-01T07:40:52.529Z,25
2018-11-01T07:42:02.665Z,25
2018-11-01T07:43:12.790Z,30
2018-11-01T07:44:22.910Z,30
2018-11-01T07:45:32.761Z,30
2018-11-01T07:46:42.887Z,30
2018-11-01T07:47:53.062Z,30
2018-11-01T07:49:02.918Z,35
2018-11-01T07:50:12.216Z,35
2018-11-01T07:51:22.057Z,40
2018-11-01T07:52:31.969Z,40
2018-11-01T07:53:41.550Z,40
2018-11-01T07:54:51.675Z,40
2018-11-01T07:56:01.803Z,40
2018-11-01T07:57:11.370Z,40
2018-11-01T07:58:21.147Z,35
2018-11-01T07:59:30.785Z,35
2018-11-01T08:00:40.637Z,35
2018-11-01T08:01:50.758Z,40
2018-11-01T08:03:00.887Z,35
2018-11-01T08:04:10.458Z,40
2018-11-01T08:05:20.627Z,45
2018-11-01T08:06:30.478Z,45
2018-11-01T08:07:40.619Z,45
2018-11-01T08:08:50.739Z,45
2018-11-01T08:10:00.585Z,50
2018-11-01T08:11:10.482Z,55
2018-11-01T08:12:20.328Z,60
2018-11-01T08:13:30.195Z,60
2018-11-01T08:14:40.325Z,65
2018-11-01T08:15:49.900Z,65
2018-11-01T08:17:00.079Z,65
2018-11-01T08:18:09.944Z,70
2018-11-01T08:19:20.088Z,75
2018-11-01T08:20:30.263Z,75
2018-11-01T08:21:40.121Z,75
2018-11-01T08:22:50.318Z,75
2018-11-01T08:23:59.890Z,80
2018-11-01T08:25:09.183Z,85
2018-11-01T08:26:19.030Z,90
2018-11-01T08:27:28.875Z,90
2018-11-01T08:28:38.769Z,90
2018-11-01T08:29:48.666Z,95
2018-11-01T08:30:58.239Z,95
2018-11-01T08:32:08.368Z,100
2018-11-01T08:33:18.499Z,105
2018-11-01T08:34:27.845Z,115
2018-11-01T08:35:37.965Z,120
2018-11-01T08:36:47.537Z,120
2018-11-01T08:37:57.653Z,120
2018-11-01T08:39:07.803Z,115
2018-11-01T08:40:17.438Z,120
2018-11-01T08:41:27.565Z,120
2018-11-01T08:42:37.702Z,120
2018-11-01T08:43:47.550Z,120
2018-11-01T08:44:57.127Z,120
2018-11-01T08:46:06.798Z,115
2018-11-01T08:47:16.650Z,130
2018-11-01T08:48:26.768Z,125
2018-11-01T08:49:37.593Z,125
2018-11-01T08:50:47.462Z,140
2018-11-01T08:51:57.694Z,145
2018-11-01T08:53:07.272Z,140
2018-11-01T08:54:16.568Z,155
2018-11-01T08:55:26.696Z,155
2018-11-01T08:56:36.818Z,145
2018-11-01T08:57:46.723Z,150
2018-11-01T08:58:56.572Z,145
2018-11-01T09:00:06.145Z,135
2018-11-01T09:01:15.445Z,140
2018-11-01T09:02:25.570Z,135
2018-11-01T09:03:35.490Z,125
2018-11-01T09:04:45.062Z,115
2018-11-01T09:05:54.359Z,110
2018-11-01T09:07:04.209Z,105
2018-11-01T09:08:15.055Z,100
2018-11-01T09:09:25.236Z,105
2018-11-01T09:10:35.791Z,110
2018-11-01T09:11:45.467Z,120
2018-11-01T09:12:55.912Z,120
2018-11-01T09:14:05.869Z,130
2018-11-01T09:15:15.787Z,145
2018-11-01T09:16:25.367Z,145
2018-11-01T09:17:35.596Z,140
2018-11-01T09:18:45.191Z,145
2018-11-01T09:19:55.041Z,145
2018-11-01T09:21:04.614Z,140
2018-11-01T09:22:13.915Z,130
2018-11-01T09:23:24.045Z,130
2018-11-01T09:24:33.618Z,130
2018-11-01T09:25:43.467Z,125
2018-11-01T09:26:54.151Z,120
2018-11-01T09:28:04.358Z,115
2018-11-01T09:29:14.213Z,110
2018-11-01T09:30:23.791Z,105
2018-11-01T09:31:33.095Z,100
2018-11-01T09:32:43.369Z,105
2018-11-01T09:33:53.508Z,105
2018-11-01T09:35:03.637Z,100
2018-11-01T09:36:13.212Z,90
2018-11-01T09:37:23.059Z,85
2018-11-01T09:38:33.286Z,85
2018-11-01T09:39:43.431Z,85
2018-11-01T09:40:53.554Z,90
2018-11-01T09:42:03.406Z,90
2018-11-01T09:43:13.536Z,90
2018-11-01T09:44:23.711Z,90
2018-11-01T09:45:33.566Z,95
2018-11-01T09:46:45.265Z,100
2018-11-01T09:47:56.302Z,105
2018-11-01T09:49:06.149Z,105
2018-11-01T09:50:15.776Z,110
2018-11-01T09:51:25.356Z,115
2018-11-01T09:52:35.477Z,125
2018-11-01T09:53:45.605Z,125
2018-11-01T09:54:55.725Z,125
2018-11-01T09:56:06.748Z,130
2018-11-01T09:57:16.950Z,135
2018-11-01T09:58:27.070Z,140
2018-11-01T09:59:36.931Z,145
2018-11-01T10:00:47.065Z,150
2018-11-01T10:01:57.245Z,150
2018-11-01T10:03:07.097Z,155
2018-11-01T10:04:16.950Z,160
2018-11-01T10:05:26.799Z,185
2018-11-01T10:06:36.936Z,205
2018-11-01T10:07:47.119Z,215
2018-11-01T10:08:56.974Z,215
2018-11-01T10:10:06.281Z,210
2018-11-01T10:11:16.130Z,205
2018-11-01T10:12:25.987Z,215
2018-11-01T10:13:35.611Z,215
2018-11-01T10:14:45.186Z,210
2018-11-01T10:15:56.348Z,215
2018-11-01T10:17:08.434Z,220
2018-11-01T10:18:20.313Z,225
2018-11-01T10:19:30.509Z,240
2018-11-01T10:20:40.634Z,260
2018-11-01T10:21:51.064Z,260
2018-11-01T10:23:01.704Z,255
2018-11-01T10:24:11.675Z,265
2018-11-01T10:25:22.282Z,295
2018-11-01T10:26:32.465Z,340
2018-11-01T10:27:43.406Z,335
2018-11-01T10:28:53.303Z,330
2018-11-01T10:30:03.439Z,315
2018-11-01T10:31:13.015Z,315
2018-11-01T10:32:23.144Z,290
2018-11-01T10:33:32.995Z,275
2018-11-01T10:34:43.115Z,270
2018-11-01T10:35:52.694Z,305
2018-11-01T10:37:02.877Z,350
2018-11-01T10:38:13.006Z,350
2018-11-01T10:39:22.858Z,360
2018-11-01T10:40:32.765Z,310
2018-11-01T10:41:42.627Z,300
2018-11-01T10:42:52.762Z,275
2018-11-01T10:44:02.339Z,235
2018-11-01T10:45:12.204Z,220
2018-11-01T10:46:22.053Z,200
2018-11-01T10:47:32.030Z,190
2018-11-01T10:48:42.023Z,200
2018-11-01T10:49:52.159Z,190
2018-11-01T10:51:02.013Z,155
2018-11-01T10:52:12.149Z,150
2018-11-01T10:53:21.777Z,140
2018-11-01T10:54:32.537Z,150
2018-11-01T10:55:42.124Z,180
2018-11-01T10:56:51.994Z,195
2018-11-01T10:58:02.124Z,190
2018-11-01T10:59:11.978Z,190
2018-11-01T11:00:22.744Z,205
2018-11-01T11:01:32.934Z,195
2018-11-01T11:02:42.235Z,215
2018-11-01T11:03:52.358Z,215
2018-11-01T11:05:02.530Z,220
2018-11-01T11:06:12.431Z,210
2018-11-01T11:07:22.282Z,210
2018-11-01T11:08:32.136Z,215
2018-11-01T11:09:41.716Z,230
2018-11-01T11:10:51.566Z,210
2018-11-01T11:12:01.740Z,220
2018-11-01T11:13:11.047Z,220
2018-11-01T11:14:21.312Z,235
2018-11-01T11:15:31.235Z,215
2018-11-01T11:16:41.366Z,205
2018-11-01T11:17:51.487Z,210
2018-11-01T11:19:01.620Z,215
2018-11-01T11:20:12.245Z,205
2018-11-01T11:21:24.037Z,185
2018-11-01T11:22:34.165Z,180
2018-11-01T11:23:44.337Z,170
2018-11-01T11:24:54.189Z,180
2018-11-01T11:26:04.319Z,175
2018-11-01T11:27:14.441Z,175
2018-11-01T11:28:24.294Z,190
2018-11-01T11:29:34.513Z,190
2018-11-01T11:30:45.371Z,190
2018-11-01T11:31:55.252Z,185
2018-11-01T11:33:05.437Z,185
2018-11-01T11:34:15.569Z,180
2018-11-01T11:35:26.175Z,180
2018-11-01T11:36:35.961Z,200
2018-11-01T11:37:46.087Z,190
2018-11-01T11:38:55.978Z,180
2018-11-01T11:40:05.831Z,200
2018-11-01T11:41:15.190Z,220
2018-11-01T11:42:25.045Z,230
2018-11-01T11:43:34.345Z,245
2018-11-01T11:44:44.193Z,255
2018-11-01T11:45:54.319Z,245
2018-11-01T11:47:04.219Z,250
2018-11-01T11:48:14.353Z,245
2018-11-01T11:49:24.205Z,235
2018-11-01T11:50:34.052Z,230
2018-11-01T11:51:44.329Z,230
2018-11-01T11:52:54.516Z,240
2018-11-01T11:54:04.088Z,250
2018-11-01T11:55:13.935Z,255
2018-11-01T11:56:23.783Z,255
2018-11-01T11:57:33.630Z,255
2018-11-01T11:58:43.803Z,240
2018-11-01T11:59:53.931Z,210
2018-11-01T12:01:04.070Z,205
2018-11-01T12:02:13.466Z,205
2018-11-01T12:03:23.321Z,200
2018-11-01T12:04:33.498Z,195
2018-11-01T12:05:44.894Z,205
2018-11-01T12:06:54.688Z,210
2018-11-01T12:08:04.532Z,215
2018-11-01T12:09:14.105Z,220
2018-11-01T12:10:24.289Z,225
2018-11-01T12:11:34.135Z,220
2018-11-01T12:12:44.256Z,205
2018-11-01T12:13:53.829Z,215
2018-11-01T12:15:03.692Z,230
2018-11-01T12:16:13.823Z,235
2018-11-01T12:17:23.678Z,235
2018-11-01T12:18:33.262Z,235
2018-11-01T12:19:43.388Z,230
2018-11-01T12:20:53.511Z,225
2018-11-01T12:22:03.416Z,215
2018-11-01T12:23:13.551Z,215
2018-11-01T12:24:23.405Z,200
2018-11-01T12:25:32.978Z,185
2018-11-01T12:26:43.103Z,180
2018-11-01T12:27:52.452Z,155
2018-11-01T12:29:03.083Z,130
2018-11-01T12:30:12.622Z,120
2018-11-01T12:31:22.755Z,125
2018-11-01T12:32:32.883Z,115
2018-11-01T12:33:42.508Z,100
2018-11-01T12:34:52.350Z,95
2018-11-01T12:36:03.031Z,100
2018-11-01T12:37:13.173Z,100
2018-11-01T12:38:22.751Z,100
2018-11-01T12:39:32.647Z,105
2018-11-01T12:40:42.497Z,100
2018-11-01T12:41:52.200Z,95
2018-11-01T12:43:02.348Z,95
2018-11-01T12:44:12.497Z,95
2018-11-01T12:45:22.399Z,95
2018-11-01T12:46:32.258Z,95
2018-11-01T12:47:41.832Z,95
2018-11-01T12:48:51.958Z,90
2018-11-01T12:50:03.240Z,95
2018-11-01T12:51:12.996Z,100
2018-11-01T12:52:22.847Z,110
2018-11-01T12:53:32.967Z,105
2018-11-01T12:54:43.096Z,100
2018-11-01T12:55:52.674Z,100
2018-11-01T12:57:02.639Z,100
2018-11-01T12:58:11.950Z,100
2018-11-01T12:59:22.079Z,100
2018-11-01T13:00:31.990Z,100
2018-11-01T13:01:42.124Z,75
2018-11-01T13:02:52.649Z,65
2018-11-01T13:04:02.231Z,60
2018-11-01T13:05:11.534Z,55
2018-11-01T13:06:21.660Z,55
2018-11-01T13:07:31.234Z,55
2018-11-01T13:08:41.464Z,60
2018-11-01T13:09:51.588Z,55
2018-11-01T13:11:01.303Z,55
2018-11-01T13:12:11.161Z,60
2018-11-01T13:13:21.013Z,55
2018-11-01T13:14:30.913Z,55
2018-11-01T13:15:41.043Z,55
2018-11-01T13:16:50.886Z,55
2018-11-01T13:18:01.109Z,50
2018-11-01T13:19:10.966Z,50
2018-11-01T13:20:20.861Z,55
2018-11-01T13:21:30.434Z,50
2018-11-01T13:22:40.287Z,50
2018-11-01T13:23:50.144Z,50
2018-11-01T13:24:59.991Z,45
2018-11-01T13:26:09.889Z,45
2018-11-01T13:27:19.740Z,45
2018-11-01T13:28:29.860Z,50
2018-11-01T13:29:39.432Z,55
2018-11-01T13:30:49.562Z,45
2018-11-01T13:32:01.417Z,40
2018-11-01T13:33:11.267Z,50
2018-11-01T13:34:21.119Z,45
2018-11-01T13:35:32.020Z,40
2018-11-01T13:36:42.302Z,35
2018-11-01T13:37:52.486Z,35
2018-11-01T13:39:02.610Z,35
2018-11-01T13:40:15.144Z,30
2018-11-01T13:41:26.265Z,35
2018-11-01T13:42:36.116Z,35
2018-11-01T13:43:46.022Z,45
2018-11-01T13:44:56.145Z,45
2018-11-01T13:46:06.271Z,45
2018-11-01T13:47:16.187Z,45
2018-11-01T13:48:27.496Z,60
2018-11-01T13:49:36.794Z,65
2018-11-01T13:50:46.927Z,60
2018-11-01T13:51:56.232Z,50
2018-11-01T13:53:06.360Z,45
2018-11-01T13:54:16.487Z,50
2018-11-01T13:55:26.717Z,45
2018-11-01T13:56:37.125Z,50
2018-11-01T13:57:46.488Z,55
2018-11-01T13:58:56.337Z,55
2018-11-01T14:00:06.199Z,55
2018-11-01T14:01:16.379Z,65
2018-11-01T14:02:26.231Z,70
2018-11-01T14:03:36.363Z,65
2018-11-01T14:04:46.214Z,65
2018-11-01T14:05:57.273Z,65
2018-11-01T14:07:07.459Z,55
2018-11-01T14:08:17.311Z,55
2018-11-01T14:09:27.437Z,65
2018-11-01T14:10:37.011Z,65
2018-11-01T14:11:46.860Z,55
2018-11-01T14:12:56.759Z,50
2018-11-01T14:14:09.364Z,45
2018-11-01T14:15:22.892Z,35
2018-11-01T14:16:33.466Z,30
2018-11-01T14:17:43.600Z,30
2018-11-01T14:18:53.565Z,30
2018-11-01T14:20:03.139Z,25
2018-11-01T14:21:12.713Z,20
2018-11-01T14:22:22.840Z,20
2018-11-01T14:23:32.961Z,25
2018-11-01T14:24:42.859Z,25
2018-11-01T14:25:52.863Z,30
2018-11-01T14:27:02.287Z,30
2018-11-01T14:28:11.855Z,25
2018-11-01T14:29:21.109Z,20
2018-11-01T14:30:31.286Z,20
2018-11-01T14:31:41.469Z,20
2018-11-01T14:32:51.593Z,20
2018-11-01T14:34:01.442Z,20
2018-11-01T14:35:10.749Z,20
2018-11-01T14:36:20.381Z,15
2018-11-01T14:37:30.837Z,15
2018-11-01T14:38:40.346Z,10
2018-11-01T14:39:50.469Z,10
2018-11-01T14:40:59.772Z,10
2018-11-01T14:42:09.668Z,10
2018-11-01T14:43:19.981Z,5
2018-11-01T14:44:30.588Z,5
2018-11-01T14:45:40.179Z,5
2018-11-01T14:46:50.350Z,5
2018-11-01T14:48:00.530Z,5
2018-11-01T14:49:10.719Z,5
2018-11-01T14:50:20.630Z,5
2018-11-01T14:51:30.498Z,5
2018-11-01T14:52:43.066Z,5
2018-11-01T14:53:56.546Z,5
2018-11-01T14:55:12.285Z,5
2018-11-01T14:56:30.201Z,0
2018-11-01T14:57:51.250Z,0
2018-11-01T14:59:12.360Z,0
2018-11-01T15:00:23.177Z,0
2018-11-01T15:01:33.459Z,0
2018-11-01T15:02:43.656Z,0
2018-11-01T15:03:53.666Z,0
2018-11-01T15:05:03.520Z,0
2018-11-01T15:06:13.704Z,0
2018-11-01T15:07:23.557Z,0
2018-11-01T15:08:33.135Z,0
2018-11-01T15:09:42.781Z,0
2018-11-01T15:10:52.668Z,0
2018-11-01T15:12:02.850Z,0
2018-11-01T15:13:13.652Z,0
2018-11-01T15:14:23.581Z,0
2018-11-01T15:15:33.754Z,0
2018-11-01T15:16:43.631Z,0
2018-11-01T15:17:53.757Z,0
2018-11-01T15:19:03.450Z,0
2018-11-01T15:20:13.587Z,0
2018-11-01T15:21:23.218Z,0
2018-11-01T15:22:32.792Z,0
2018-11-01T15:23:42.647Z,0
2018-11-01T15:24:51.968Z,0
2018-11-01T15:26:01.763Z,0
2018-11-01T15:27:11.676Z,0
2018-11-01T15:28:21.814Z,0
2018-11-01T15:29:31.679Z,0
2018-11-01T15:30:41.278Z,0
2018-11-01T15:31:51.418Z,0
2018-11-01T15:33:01.334Z,0
2018-11-01T15:34:12.559Z,0
2018-11-01T15:35:22.578Z,0
2018-11-01T15:36:32.735Z,0
2018-11-01T15:37:44.112Z,0
2018-11-01T15:38:54.467Z,0
2018-11-01T15:40:05.214Z,0
2018-11-01T15:41:15.578Z,0
2018-11-01T15:42:25.753Z,0
2018-11-01T15:43:35.631Z,0
2018-11-01T15:44:45.274Z,0
2018-11-01T15:45:55.156Z,0
2018-11-01T15:47:04.460Z,0
2018-11-01T15:48:14.855Z,0
2018-11-01T15:49:24.794Z,0
2018-11-01T15:50:34.730Z,0
2018-11-01T15:51:44.642Z,0
2018-11-01T15:52:54.731Z,0
2018-11-01T15:54:04.890Z,0
2018-11-01T15:55:14.492Z,0
2018-11-01T15:56:24.591Z,0
2018-11-01T15:57:34.543Z,0
2018-11-01T15:58:45.601Z,0
2018-11-01T15:59:55.467Z,0
2018-11-01T16:01:05.866Z,0
2018-11-01T16:02:16.418Z,0
2018-11-01T16:03:26.697Z,0
2018-11-01T16:04:36.652Z,0
2018-11-01T16:05:46.530Z,0
2018-11-01T16:06:56.117Z,0
2018-11-01T16:08:05.760Z,0
2018-11-01T16:09:15.909Z,0
2018-11-01T16:10:25.983Z,0
2018-11-01T16:11:35.844Z,0
2018-11-01T16:12:45.738Z,0
2018-11-01T16:13:55.957Z,0
2018-11-01T16:15:05.577Z,0
2018-11-01T16:16:15.451Z,0
2018-11-01T16:17:25.595Z,0
2018-11-01T16:18:35.807Z,0
2018-11-01T16:19:46.919Z,0
2018-11-01T16:20:57.753Z,0
2018-11-01T16:22:07.920Z,0
2018-11-01T16:23:18.231Z,0
2018-11-01T16:24:28.463Z,0
2018-11-01T16:25:38.135Z,0
2018-11-01T16:26:48.038Z,0
2018-11-01T16:27:57.909Z,0
2018-11-01T16:29:08.071Z,0
2018-11-01T16:30:17.667Z,0
2018-11-01T16:31:27.869Z,0
2018-11-01T16:32:37.747Z,0
2018-11-01T16:33:47.900Z,0
2018-11-01T16:34:57.798Z,0
2018-11-01T16:36:07.721Z,0
2018-11-01T16:37:18.836Z,0
2018-11-01T16:38:28.894Z,0
2018-11-01T16:39:39.240Z,0
2018-11-01T16:40:49.367Z,0
2018-11-01T16:41:59.091Z,0
2018-11-01T16:43:09.021Z,0
2018-11-01T16:44:18.892Z,0
2018-11-01T16:45:29.642Z,0
2018-11-01T16:46:39.809Z,0
2018-11-01T16:47:49.708Z,0
2018-11-01T16:48:59.919Z,0